createdAt,value
2023-03-17T00:04:32.026Z,61.34
2023-03-17T00:09:56.220Z,61.51
2023-03-17T00:15:24.232Z,61.72
2023-03-17T00:20:48.797Z,62.03
2023-03-17T00:26:13.474Z,71.20
2023-03-17T00:31:40.630Z,79.15
2023-03-17T00:37:04.940Z,76.25
2023-03-17T00:42:29.802Z,71.85
2023-03-17T00:47:56.420Z,66.90
2023-03-17T00:53:24.605Z,64.49
2023-03-17T00:58:49.880Z,61.95
2023-03-17T01:04:14.620Z,53.56
2023-03-17T01:09:38.513Z,47.57
2023-03-17T01:15:03.035Z,47.34
2023-03-17T01:20:31.962Z,48.21
2023-03-17T01:25:56.749Z,49.35
2023-03-17T01:31:23.569Z,50.68
2023-03-17T01:36:48.922Z,51.82
2023-03-17T01:42:13.956Z,53.01
2023-03-17T01:47:38.334Z,54.11
2023-03-17T01:53:02.188Z,54.95
2023-03-17T01:58:27.082Z,55.76
2023-03-17T02:03:52.586Z,56.51
2023-03-17T02:09:17.832Z,57.17
2023-03-17T02:14:42.237Z,57.74
2023-03-17T02:20:18.771Z,58.23
2023-03-17T02:25:47.794Z,58.70
2023-03-17T02:31:12.987Z,59.18
2023-03-17T02:36:37.817Z,59.57
2023-03-17T02:42:04.089Z,59.92
2023-03-17T02:47:27.993Z,60.20
2023-03-17T02:52:52.623Z,60.57
2023-03-17T02:58:16.921Z,60.92
2023-03-17T03:03:41.077Z,61.21
2023-03-17T03:09:06.151Z,61.51
2023-03-17T03:14:30.981Z,61.83
2023-03-17T03:19:55.037Z,70.91
2023-03-17T03:25:19.106Z,78.27
2023-03-17T03:30:44.848Z,74.41
2023-03-17T03:36:09.311Z,69.63
2023-03-17T03:41:33.950Z,65.49
2023-03-17T03:46:59.277Z,62.04
2023-03-17T03:52:23.819Z,53.87
2023-03-17T03:57:48.244Z,47.62
2023-03-17T04:03:13.247Z,47.60
2023-03-17T04:08:37.989Z,48.56
2023-03-17T04:14:02.547Z,49.77
2023-03-17T04:19:27.890Z,51.08
2023-03-17T04:24:52.497Z,52.51
2023-03-17T04:30:17.235Z,54.11
2023-03-17T04:35:41.814Z,55.36
2023-03-17T04:41:06.649Z,56.51
2023-03-17T04:46:31.355Z,57.20
2023-03-17T04:51:56.125Z,57.86
2023-03-17T04:57:20.422Z,58.54
2023-03-17T05:02:45.222Z,59.29
2023-03-17T05:08:09.191Z,59.75
2023-03-17T05:13:33.604Z,60.22
2023-03-17T05:18:58.809Z,60.74
2023-03-17T05:24:24.174Z,61.13
2023-03-17T05:29:49.133Z,61.66
2023-03-17T05:35:13.952Z,70.88
2023-03-17T05:40:38.465Z,78.39
2023-03-17T05:46:03.038Z,74.39
2023-03-17T05:51:28.275Z,68.47
2023-03-17T05:56:53.665Z,64.32
2023-03-17T06:02:18.574Z,61.20
2023-03-17T06:07:52.912Z,51.94
2023-03-17T06:13:19.463Z,46.93
2023-03-17T06:19:58.055Z,48.49
2023-03-17T06:25:23.455Z,49.59
2023-03-17T06:30:48.143Z,51.88
2023-03-17T06:36:12.929Z,52.87
2023-03-17T06:41:36.944Z,53.93
2023-03-17T06:47:01.149Z,54.65
2023-03-17T06:52:25.773Z,55.97
2023-03-17T06:57:51.553Z,56.93
2023-03-17T07:03:17.259Z,58.35
2023-03-17T07:08:41.830Z,58.53
2023-03-17T07:14:06.700Z,58.42
2023-03-17T07:19:31.609Z,58.38
2023-03-17T07:24:56.188Z,58.40
2023-03-17T07:30:21.132Z,58.44
2023-03-17T07:35:46.158Z,58.75
2023-03-17T07:41:11.300Z,58.12
2023-03-17T07:46:35.617Z,57.58
2023-03-17T07:51:59.824Z,57.70
2023-03-17T07:57:25.040Z,57.32
2023-03-17T08:03:06.981Z,56.78
2023-03-17T08:08:34.413Z,55.90
2023-03-17T08:13:58.787Z,55.57
2023-03-17T08:19:24.574Z,54.89
2023-03-17T08:24:49.228Z,54.87
2023-03-17T08:30:13.869Z,54.20
2023-03-17T08:35:42.336Z,54.13
2023-03-17T08:41:10.071Z,53.89
2023-03-17T08:46:35.436Z,53.55
2023-03-17T08:52:00.407Z,53.31
2023-03-17T08:57:25.089Z,52.09
2023-03-17T09:02:49.327Z,51.57
2023-03-17T09:08:13.672Z,50.32
2023-03-17T09:13:39.606Z,50.14
2023-03-17T09:19:04.663Z,50.46
2023-03-17T09:24:29.196Z,50.12
2023-03-17T09:29:53.111Z,48.80
2023-03-17T09:35:17.807Z,48.10
2023-03-17T09:40:49.955Z,48.06
2023-03-17T09:46:27.314Z,47.91
2023-03-17T09:51:52.543Z,47.30
2023-03-17T09:57:32.740Z,46.74
2023-03-17T10:02:58.375Z,45.80
2023-03-17T10:08:32.585Z,45.04
2023-03-17T10:14:52.983Z,42.43
2023-03-17T10:20:25.936Z,42.65
2023-03-17T10:25:50.406Z,42.91
2023-03-17T10:31:29.150Z,41.92
2023-03-17T10:37:07.019Z,41.18
2023-03-17T10:42:36.030Z,41.75
2023-03-17T10:48:04.770Z,41.76
2023-03-17T10:53:38.855Z,41.37
2023-03-17T11:05:04.784Z,41.34
2023-03-17T11:10:30.500Z,41.80
2023-03-17T11:16:07.793Z,41.19
2023-03-17T11:21:55.243Z,40.38
2023-03-17T11:27:36.132Z,40.68
2023-03-17T11:33:28.384Z,40.02
2023-03-17T11:39:06.112Z,38.92
2023-03-17T11:45:06.924Z,38.80
2023-03-17T11:50:39.656Z,38.97
2023-03-17T11:56:14.284Z,39.31
2023-03-17T12:01:51.518Z,40.12
2023-03-17T12:07:23.830Z,40.63
2023-03-17T12:12:56.896Z,39.84
2023-03-17T12:18:33.106Z,39.74
2023-03-17T12:24:27.224Z,39.11
2023-03-17T12:30:17.999Z,39.16
2023-03-17T12:35:43.569Z,39.10
2023-03-17T12:41:21.231Z,38.56
2023-03-17T12:47:06.553Z,38.71
2023-03-17T12:52:37.949Z,38.71
2023-03-17T12:58:20.454Z,38.90
2023-03-17T13:04:06.074Z,38.97
2023-03-17T13:09:43.579Z,39.80
2023-03-17T13:15:31.168Z,39.98
2023-03-17T13:21:01.357Z,39.12
2023-03-17T13:27:04.750Z,39.23
2023-03-17T13:32:34.050Z,38.50
2023-03-17T13:38:14.224Z,39.00
2023-03-17T13:43:45.159Z,39.19
2023-03-17T13:49:30.276Z,39.28
2023-03-17T13:55:24.210Z,38.47
2023-03-17T14:00:56.096Z,38.93
2023-03-17T14:06:28.381Z,39.05
2023-03-17T14:11:53.857Z,39.00
2023-03-17T14:17:30.595Z,38.94
2023-03-17T14:22:59.361Z,39.18
2023-03-17T14:28:29.231Z,38.93
2023-03-17T14:33:57.277Z,38.81
2023-03-17T14:39:26.643Z,39.39
2023-03-17T14:45:01.941Z,39.34
2023-03-17T14:50:31.632Z,39.92
2023-03-17T14:55:56.867Z,40.20
2023-03-17T15:01:35.525Z,39.80
2023-03-17T15:07:03.317Z,39.53
2023-03-17T15:12:29.380Z,40.19
2023-03-17T15:17:57.795Z,40.30
2023-03-17T15:23:41.506Z,40.24
2023-03-17T15:29:06.238Z,40.82
2023-03-17T15:34:30.979Z,40.86
2023-03-17T15:39:56.758Z,41.09
2023-03-17T15:45:22.724Z,41.49
2023-03-17T15:50:49.647Z,41.74
2023-03-17T15:56:20.802Z,42.22
2023-03-17T16:01:45.670Z,42.32
2023-03-17T16:07:13.471Z,42.66
2023-03-17T16:12:37.537Z,43.28
2023-03-17T16:18:05.001Z,43.72
2023-03-17T16:23:34.413Z,44.46
2023-03-17T16:29:00.942Z,45.02
2023-03-17T16:34:26.217Z,45.26
2023-03-17T16:39:52.739Z,45.61
2023-03-17T16:45:22.444Z,46.26
2023-03-17T16:50:46.608Z,46.56
2023-03-17T16:56:15.825Z,47.12
2023-03-17T17:01:41.269Z,47.38
2023-03-17T17:07:06.108Z,47.73
2023-03-17T17:12:30.825Z,47.44
2023-03-17T17:17:58.820Z,47.78
2023-03-17T17:23:26.692Z,48.46
2023-03-17T17:28:51.735Z,48.77
2023-03-17T17:34:16.827Z,49.11
2023-03-17T17:39:41.089Z,49.12
2023-03-17T17:45:05.342Z,49.62
2023-03-17T17:50:30.750Z,49.90
2023-03-17T17:55:55.938Z,49.92
2023-03-17T18:01:23.128Z,50.30
2023-03-17T18:06:48.068Z,50.56
2023-03-17T18:12:12.209Z,50.82
2023-03-17T18:17:36.684Z,51.05
2023-03-17T18:23:01.361Z,51.28
2023-03-17T18:28:25.487Z,51.56
2023-03-17T18:33:52.346Z,51.76
2023-03-17T18:39:17.463Z,51.97
2023-03-17T18:44:42.052Z,52.19
2023-03-17T18:50:09.583Z,52.33
2023-03-17T18:55:33.861Z,52.52
2023-03-17T19:00:59.960Z,52.85
2023-03-17T19:06:24.811Z,53.11
2023-03-17T19:11:49.713Z,53.33
2023-03-17T19:17:14.117Z,53.49
2023-03-17T19:22:38.367Z,53.69
2023-03-17T19:28:03.743Z,53.87
2023-03-17T19:33:29.196Z,53.97
2023-03-17T19:38:53.394Z,54.21
2023-03-17T19:44:18.175Z,54.38
2023-03-17T19:49:42.568Z,54.58
2023-03-17T19:55:08.486Z,54.70
2023-03-17T20:00:34.496Z,54.95
2023-03-17T20:05:58.589Z,55.33
2023-03-17T20:11:24.358Z,55.72
2023-03-17T20:16:50.947Z,56.02
2023-03-17T20:22:14.966Z,56.28
2023-03-17T20:27:40.488Z,56.55
2023-03-17T20:33:07.013Z,56.58
2023-03-17T20:38:33.591Z,56.83
2023-03-17T20:43:58.378Z,57.16
2023-03-17T20:49:23.947Z,57.40
2023-03-17T20:54:48.852Z,57.48
2023-03-17T21:00:18.117Z,57.70
2023-03-17T21:05:42.688Z,57.96
2023-03-17T21:11:08.431Z,58.39
2023-03-17T21:16:33.233Z,58.66
2023-03-17T21:21:58.995Z,58.92
2023-03-17T21:27:23.390Z,59.11
2023-03-17T21:32:47.638Z,59.22
2023-03-17T21:38:12.063Z,59.37
2023-03-17T21:43:36.197Z,59.70
2023-03-17T21:49:01.939Z,60.02
2023-03-17T21:54:27.402Z,60.11
2023-03-17T21:59:51.320Z,60.17
2023-03-17T22:05:15.181Z,60.26
2023-03-17T22:10:40.763Z,60.65
2023-03-17T22:16:05.357Z,60.73
2023-03-17T22:21:32.260Z,60.85
2023-03-17T22:26:56.978Z,61.01
2023-03-17T22:32:20.981Z,61.32
2023-03-17T22:37:45.290Z,61.64
2023-03-17T22:43:09.471Z,61.81
2023-03-17T22:48:36.178Z,62.00
2023-03-17T22:54:00.572Z,72.27
2023-03-17T22:59:25.311Z,78.30
2023-03-17T23:04:50.410Z,73.91
2023-03-17T23:10:16.314Z,69.02
2023-03-17T23:15:40.777Z,64.48
2023-03-17T23:21:07.074Z,61.23
2023-03-17T23:26:33.290Z,52.40
2023-03-17T23:31:58.088Z,47.21
2023-03-17T23:37:22.564Z,47.23
2023-03-17T23:42:49.299Z,48.20
2023-03-17T23:48:13.415Z,49.51
2023-03-17T23:53:39.807Z,50.86
2023-03-17T23:59:04.854Z,52.20
